Aviation Digital Data Service (ADDS)

Output produced by TAFs form (0328 UTC 25 October 2014)
found at http://aviationweather.gov/adds/tafs/
 
KAMA 242334Z 2500/2524 20008KT P6SM SKC 
     FM251600 21014G21KT P6SM FEW300